sensor_id;sensor_type;location;lat;lon;timestamp;P1;durP1;ratioP1;P2;durP2;ratioP2
37001;SDS011;22913;51.910;8.374;2022-12-26T00:02:23;18.77;;;17.07;;
37001;SDS011;22913;51.910;8.374;2022-12-26T00:05:08;18.67;;;16.87;;
37001;SDS011;22913;51.910;8.374;2022-12-26T00:07:54;17.43;;;15.73;;
37001;SDS011;22913;51.910;8.374;2022-12-26T00:10:42;18.27;;;16.47;;
37001;SDS011;22913;51.910;8.374;2022-12-26T00:13:27;17.37;;;15.67;;
37001;SDS011;22913;51.910;8.374;2022-12-26T00:16:14;17.77;;;16.17;;
37001;SDS011;22913;51.910;8.374;2022-12-26T00:19:01;17.77;;;15.97;;
37001;SDS011;22913;51.910;8.374;2022-12-26T00:21:47;16.70;;;15.20;;
37001;SDS011;22913;51.910;8.374;2022-12-26T00:24:33;18.13;;;16.53;;
37001;SDS011;22913;51.910;8.374;2022-12-26T00:27:20;17.07;;;15.47;;
37001;SDS011;22913;51.910;8.374;2022-12-26T00:30:07;17.50;;;15.77;;
37001;SDS011;22913;51.910;8.374;2022-12-26T00:32:53;18.07;;;16.40;;
37001;SDS011;22913;51.910;8.374;2022-12-26T00:35:39;17.17;;;15.67;;
37001;SDS011;22913;51.910;8.374;2022-12-26T00:38:25;17.27;;;15.73;;
37001;SDS011;22913;51.910;8.374;2022-12-26T00:41:11;17.57;;;15.83;;
37001;SDS011;22913;51.910;8.374;2022-12-26T00:44:00;17.97;;;16.27;;
37001;SDS011;22913;51.910;8.374;2022-12-26T00:46:45;17.43;;;15.93;;
37001;SDS011;22913;51.910;8.374;2022-12-26T00:49:31;19.10;;;17.20;;
37001;SDS011;22913;51.910;8.374;2022-12-26T00:52:17;18.80;;;17.00;;
37001;SDS011;22913;51.910;8.374;2022-12-26T00:55:03;18.47;;;16.67;;
37001;SDS011;22913;51.910;8.374;2022-12-26T00:57:49;17.47;;;15.87;;
37001;SDS011;22913;51.910;8.374;2022-12-26T01:00:37;18.53;;;16.60;;
37001;SDS011;22913;51.910;8.374;2022-12-26T01:03:23;17.67;;;15.93;;
37001;SDS011;22913;51.910;8.374;2022-12-26T01:06:08;17.93;;;16.23;;
37001;SDS011;22913;51.910;8.374;2022-12-26T01:08:55;17.63;;;16.13;;
37001;SDS011;22913;51.910;8.374;2022-12-26T01:11:42;17.33;;;15.47;;
37001;SDS011;22913;51.910;8.374;2022-12-26T01:14:27;17.97;;;16.27;;
37001;SDS011;22913;51.910;8.374;2022-12-26T01:17:14;17.50;;;15.87;;
37001;SDS011;22913;51.910;8.374;2022-12-26T01:20:00;16.87;;;15.33;;
37001;SDS011;22913;51.910;8.374;2022-12-26T01:22:46;16.63;;;15.23;;
37001;SDS011;22913;51.910;8.374;2022-12-26T01:25:32;16.67;;;15.17;;
37001;SDS011;22913;51.910;8.374;2022-12-26T01:28:18;15.30;;;14.00;;
37001;SDS011;22913;51.910;8.374;2022-12-26T01:31:04;15.90;;;14.37;;
37001;SDS011;22913;51.910;8.374;2022-12-26T01:33:51;16.07;;;14.57;;
37001;SDS011;22913;51.910;8.374;2022-12-26T01:36:37;16.40;;;15.00;;
37001;SDS011;22913;51.910;8.374;2022-12-26T01:39:23;16.70;;;15.07;;
37001;SDS011;22913;51.910;8.374;2022-12-26T01:42:10;15.97;;;14.50;;
37001;SDS011;22913;51.910;8.374;2022-12-26T01:44:59;15.03;;;13.57;;
37001;SDS011;22913;51.910;8.374;2022-12-26T01:47:48;15.17;;;13.77;;
37001;SDS011;22913;51.910;8.374;2022-12-26T01:50:39;14.53;;;13.23;;
37001;SDS011;22913;51.910;8.374;2022-12-26T01:53:30;15.27;;;14.07;;
37001;SDS011;22913;51.910;8.374;2022-12-26T01:56:20;15.33;;;14.03;;
37001;SDS011;22913;51.910;8.374;2022-12-26T01:59:08;15.40;;;14.10;;
37001;SDS011;22913;51.910;8.374;2022-12-26T02:01:58;14.57;;;13.30;;
37001;SDS011;22913;51.910;8.374;2022-12-26T02:04:45;15.40;;;14.03;;
37001;SDS011;22913;51.910;8.374;2022-12-26T02:07:51;15.40;;;13.83;;
37001;SDS011;22913;51.910;8.374;2022-12-26T02:10:38;16.20;;;14.67;;
37001;SDS011;22913;51.910;8.374;2022-12-26T02:13:30;17.13;;;15.57;;
37001;SDS011;22913;51.910;8.374;2022-12-26T02:16:18;16.90;;;15.37;;
37001;SDS011;22913;51.910;8.374;2022-12-26T02:19:05;16.17;;;14.67;;
37001;SDS011;22913;51.910;8.374;2022-12-26T02:22:10;16.60;;;15.03;;
37001;SDS011;22913;51.910;8.374;2022-12-26T02:25:22;16.90;;;15.37;;
37001;SDS011;22913;51.910;8.374;2022-12-26T02:31:55;17.43;;;15.83;;
37001;SDS011;22913;51.910;8.374;2022-12-26T02:34:49;17.83;;;16.30;;
37001;SDS011;22913;51.910;8.374;2022-12-26T02:37:45;16.53;;;15.03;;
37001;SDS011;22913;51.910;8.374;2022-12-26T02:40:43;18.47;;;16.73;;
37001;SDS011;22913;51.910;8.374;2022-12-26T02:43:37;17.93;;;16.33;;
37001;SDS011;22913;51.910;8.374;2022-12-26T02:46:31;18.93;;;17.13;;
37001;SDS011;22913;51.910;8.374;2022-12-26T02:49:54;17.77;;;15.87;;
37001;SDS011;22913;51.910;8.374;2022-12-26T02:53:03;18.30;;;16.70;;
37001;SDS011;22913;51.910;8.374;2022-12-26T02:56:16;17.50;;;15.67;;
37001;SDS011;22913;51.910;8.374;2022-12-26T02:59:25;16.60;;;15.17;;
37001;SDS011;22913;51.910;8.374;2022-12-26T03:02:35;17.07;;;15.50;;
37001;SDS011;22913;51.910;8.374;2022-12-26T03:05:44;16.13;;;14.73;;
37001;SDS011;22913;51.910;8.374;2022-12-26T03:08:51;16.57;;;15.17;;
37001;SDS011;22913;51.910;8.374;2022-12-26T03:11:58;16.10;;;14.60;;
37001;SDS011;22913;51.910;8.374;2022-12-26T03:15:05;16.00;;;14.53;;
37001;SDS011;22913;51.910;8.374;2022-12-26T03:17:54;17.60;;;16.00;;
37001;SDS011;22913;51.910;8.374;2022-12-26T03:20:45;17.67;;;15.80;;
37001;SDS011;22913;51.910;8.374;2022-12-26T03:23:32;16.77;;;15.37;;
37001;SDS011;22913;51.910;8.374;2022-12-26T03:26:20;17.37;;;15.70;;
37001;SDS011;22913;51.910;8.374;2022-12-26T03:29:23;16.90;;;15.50;;
37001;SDS011;22913;51.910;8.374;2022-12-26T03:32:26;18.03;;;16.17;;
37001;SDS011;22913;51.910;8.374;2022-12-26T03:35:12;18.23;;;16.43;;
37001;SDS011;22913;51.910;8.374;2022-12-26T03:38:00;17.60;;;15.87;;
37001;SDS011;22913;51.910;8.374;2022-12-26T03:40:52;18.20;;;16.57;;
37001;SDS011;22913;51.910;8.374;2022-12-26T03:44:04;18.13;;;16.30;;
37001;SDS011;22913;51.910;8.374;2022-12-26T03:47:23;17.53;;;15.80;;
37001;SDS011;22913;51.910;8.374;2022-12-26T03:50:31;17.67;;;15.87;;
37001;SDS011;22913;51.910;8.374;2022-12-26T03:53:39;17.07;;;15.57;;
37001;SDS011;22913;51.910;8.374;2022-12-26T03:57:00;15.73;;;14.37;;
37001;SDS011;22913;51.910;8.374;2022-12-26T04:00:08;18.30;;;16.60;;
37001;SDS011;22913;51.910;8.374;2022-12-26T04:03:14;16.67;;;15.07;;
37001;SDS011;22913;51.910;8.374;2022-12-26T04:06:21;18.87;;;17.07;;
37001;SDS011;22913;51.910;8.374;2022-12-26T04:09:31;18.70;;;17.07;;
37001;SDS011;22913;51.910;8.374;2022-12-26T04:12:37;18.97;;;17.17;;
37001;SDS011;22913;51.910;8.374;2022-12-26T04:15:46;22.03;;;19.93;;
37001;SDS011;22913;51.910;8.374;2022-12-26T04:18:55;23.10;;;20.80;;
37001;SDS011;22913;51.910;8.374;2022-12-26T04:22:03;24.07;;;21.77;;
37001;SDS011;22913;51.910;8.374;2022-12-26T04:25:13;24.90;;;22.43;;
37001;SDS011;22913;51.910;8.374;2022-12-26T04:28:21;25.60;;;23.00;;
37001;SDS011;22913;51.910;8.374;2022-12-26T04:31:26;26.07;;;23.47;;
37001;SDS011;22913;51.910;8.374;2022-12-26T04:34:36;25.37;;;22.70;;
37001;SDS011;22913;51.910;8.374;2022-12-26T04:37:47;26.80;;;24.13;;
37001;SDS011;22913;51.910;8.374;2022-12-26T04:40:55;24.93;;;22.40;;
37001;SDS011;22913;51.910;8.374;2022-12-26T04:44:01;24.80;;;22.20;;
37001;SDS011;22913;51.910;8.374;2022-12-26T04:46:51;24.27;;;21.83;;
37001;SDS011;22913;51.910;8.374;2022-12-26T04:49:41;23.13;;;20.90;;
37001;SDS011;22913;51.910;8.374;2022-12-26T04:52:44;22.27;;;19.97;;
37001;SDS011;22913;51.910;8.374;2022-12-26T04:55:41;21.57;;;19.47;;
37001;SDS011;22913;51.910;8.374;2022-12-26T04:58:28;21.07;;;19.07;;
37001;SDS011;22913;51.910;8.374;2022-12-26T05:01:14;19.43;;;17.40;;
37001;SDS011;22913;51.910;8.374;2022-12-26T05:04:17;18.90;;;17.10;;
37001;SDS011;22913;51.910;8.374;2022-12-26T05:07:22;17.13;;;15.53;;
37001;SDS011;22913;51.910;8.374;2022-12-26T05:10:27;16.67;;;15.17;;
37001;SDS011;22913;51.910;8.374;2022-12-26T05:13:12;17.10;;;15.50;;
37001;SDS011;22913;51.910;8.374;2022-12-26T05:15:59;17.00;;;15.40;;
37001;SDS011;22913;51.910;8.374;2022-12-26T05:19:03;17.57;;;15.97;;
37001;SDS011;22913;51.910;8.374;2022-12-26T05:22:08;16.97;;;15.40;;
37001;SDS011;22913;51.910;8.374;2022-12-26T05:25:13;15.67;;;14.27;;
37001;SDS011;22913;51.910;8.374;2022-12-26T05:28:18;15.43;;;14.03;;
37001;SDS011;22913;51.910;8.374;2022-12-26T05:31:23;13.30;;;12.13;;
37001;SDS011;22913;51.910;8.374;2022-12-26T05:34:09;13.13;;;11.93;;
37001;SDS011;22913;51.910;8.374;2022-12-26T05:36:55;11.80;;;10.80;;
37001;SDS011;22913;51.910;8.374;2022-12-26T05:39:43;12.87;;;11.67;;
37001;SDS011;22913;51.910;8.374;2022-12-26T05:42:28;13.70;;;12.30;;
37001;SDS011;22913;51.910;8.374;2022-12-26T05:45:14;13.67;;;12.47;;
37001;SDS011;22913;51.910;8.374;2022-12-26T05:48:01;14.23;;;12.87;;
37001;SDS011;22913;51.910;8.374;2022-12-26T05:50:47;15.50;;;14.07;;
37001;SDS011;22913;51.910;8.374;2022-12-26T05:53:32;15.47;;;14.07;;
37001;SDS011;22913;51.910;8.374;2022-12-26T05:56:18;15.43;;;14.03;;
37001;SDS011;22913;51.910;8.374;2022-12-26T05:59:04;15.17;;;13.77;;
37001;SDS011;22913;51.910;8.374;2022-12-26T06:01:50;15.37;;;13.97;;
37001;SDS011;22913;51.910;8.374;2022-12-26T06:04:37;14.50;;;13.30;;
37001;SDS011;22913;51.910;8.374;2022-12-26T06:07:22;14.30;;;13.10;;
37001;SDS011;22913;51.910;8.374;2022-12-26T06:10:08;14.03;;;12.67;;
37001;SDS011;22913;51.910;8.374;2022-12-26T06:12:54;13.10;;;12.00;;
37001;SDS011;22913;51.910;8.374;2022-12-26T06:15:40;13.33;;;12.23;;
37001;SDS011;22913;51.910;8.374;2022-12-26T06:18:26;13.53;;;12.23;;
37001;SDS011;22913;51.910;8.374;2022-12-26T06:21:18;12.70;;;11.60;;
37001;SDS011;22913;51.910;8.374;2022-12-26T06:24:05;13.57;;;12.27;;
37001;SDS011;22913;51.910;8.374;2022-12-26T06:26:52;13.03;;;11.93;;
37001;SDS011;22913;51.910;8.374;2022-12-26T06:29:41;13.83;;;12.70;;
37001;SDS011;22913;51.910;8.374;2022-12-26T06:32:27;12.43;;;11.23;;
37001;SDS011;22913;51.910;8.374;2022-12-26T06:35:13;12.07;;;11.07;;
37001;SDS011;22913;51.910;8.374;2022-12-26T06:38:01;12.73;;;11.63;;
37001;SDS011;22913;51.910;8.374;2022-12-26T06:40:48;11.77;;;10.77;;
37001;SDS011;22913;51.910;8.374;2022-12-26T06:43:37;12.73;;;11.27;;
37001;SDS011;22913;51.910;8.374;2022-12-26T06:46:23;11.70;;;10.80;;
37001;SDS011;22913;51.910;8.374;2022-12-26T06:49:12;11.97;;;10.97;;
37001;SDS011;22913;51.910;8.374;2022-12-26T06:51:58;12.97;;;11.87;;
37001;SDS011;22913;51.910;8.374;2022-12-26T06:54:46;12.47;;;11.40;;
37001;SDS011;22913;51.910;8.374;2022-12-26T06:57:31;15.50;;;11.50;;
37001;SDS011;22913;51.910;8.374;2022-12-26T07:00:20;12.23;;;11.23;;
37001;SDS011;22913;51.910;8.374;2022-12-26T07:03:06;12.77;;;11.77;;
37001;SDS011;22913;51.910;8.374;2022-12-26T07:05:52;12.07;;;10.97;;
37001;SDS011;22913;51.910;8.374;2022-12-26T07:08:38;10.57;;;9.50;;
37001;SDS011;22913;51.910;8.374;2022-12-26T07:11:26;11.23;;;10.27;;
37001;SDS011;22913;51.910;8.374;2022-12-26T07:14:15;11.80;;;10.70;;
37001;SDS011;22913;51.910;8.374;2022-12-26T07:17:01;11.93;;;10.83;;
37001;SDS011;22913;51.910;8.374;2022-12-26T07:19:46;11.70;;;10.60;;
37001;SDS011;22913;51.910;8.374;2022-12-26T07:22:32;12.13;;;11.03;;
37001;SDS011;22913;51.910;8.374;2022-12-26T07:25:18;10.90;;;9.93;;
37001;SDS011;22913;51.910;8.374;2022-12-26T07:28:06;11.70;;;10.70;;
37001;SDS011;22913;51.910;8.374;2022-12-26T07:30:51;12.03;;;10.97;;
37001;SDS011;22913;51.910;8.374;2022-12-26T07:33:37;12.73;;;11.63;;
37001;SDS011;22913;51.910;8.374;2022-12-26T07:36:23;13.70;;;12.50;;
37001;SDS011;22913;51.910;8.374;2022-12-26T07:39:11;14.70;;;13.30;;
37001;SDS011;22913;51.910;8.374;2022-12-26T07:41:57;15.00;;;13.60;;
37001;SDS011;22913;51.910;8.374;2022-12-26T07:44:45;15.73;;;14.27;;
37001;SDS011;22913;51.910;8.374;2022-12-26T07:47:30;14.97;;;13.67;;
37001;SDS011;22913;51.910;8.374;2022-12-26T07:50:16;15.63;;;14.20;;
37001;SDS011;22913;51.910;8.374;2022-12-26T07:53:02;15.67;;;14.27;;
37001;SDS011;22913;51.910;8.374;2022-12-26T07:55:47;15.93;;;14.33;;
37001;SDS011;22913;51.910;8.374;2022-12-26T07:58:33;14.77;;;13.47;;
37001;SDS011;22913;51.910;8.374;2022-12-26T08:01:20;14.77;;;13.40;;
37001;SDS011;22913;51.910;8.374;2022-12-26T08:04:05;14.67;;;13.47;;
37001;SDS011;22913;51.910;8.374;2022-12-26T08:06:51;14.77;;;13.57;;
37001;SDS011;22913;51.910;8.374;2022-12-26T08:09:36;14.73;;;13.43;;
37001;SDS011;22913;51.910;8.374;2022-12-26T08:12:25;15.03;;;13.53;;
37001;SDS011;22913;51.910;8.374;2022-12-26T08:15:11;15.13;;;13.83;;
37001;SDS011;22913;51.910;8.374;2022-12-26T08:17:58;14.70;;;13.30;;
37001;SDS011;22913;51.910;8.374;2022-12-26T08:20:43;13.57;;;12.20;;
37001;SDS011;22913;51.910;8.374;2022-12-26T08:23:29;14.33;;;12.93;;
37001;SDS011;22913;51.910;8.374;2022-12-26T08:26:15;12.90;;;11.80;;
37001;SDS011;22913;51.910;8.374;2022-12-26T08:29:04;11.90;;;10.90;;
37001;SDS011;22913;51.910;8.374;2022-12-26T08:31:50;12.43;;;11.23;;
37001;SDS011;22913;51.910;8.374;2022-12-26T08:34:38;11.63;;;10.43;;
37001;SDS011;22913;51.910;8.374;2022-12-26T08:37:23;11.50;;;10.50;;
37001;SDS011;22913;51.910;8.374;2022-12-26T08:40:09;11.23;;;10.23;;
37001;SDS011;22913;51.910;8.374;2022-12-26T08:42:55;11.13;;;9.27;;
37001;SDS011;22913;51.910;8.374;2022-12-26T08:45:40;9.73;;;8.83;;
37001;SDS011;22913;51.910;8.374;2022-12-26T08:48:26;8.73;;;7.97;;
37001;SDS011;22913;51.910;8.374;2022-12-26T08:51:15;9.10;;;8.20;;
37001;SDS011;22913;51.910;8.374;2022-12-26T08:54:01;8.20;;;7.40;;
37001;SDS011;22913;51.910;8.374;2022-12-26T08:56:47;8.00;;;7.23;;
37001;SDS011;22913;51.910;8.374;2022-12-26T08:59:33;7.63;;;6.80;;
37001;SDS011;22913;51.910;8.374;2022-12-26T09:02:19;7.83;;;6.20;;
37001;SDS011;22913;51.910;8.374;2022-12-26T09:05:05;6.97;;;6.37;;
37001;SDS011;22913;51.910;8.374;2022-12-26T09:07:52;6.67;;;5.97;;
37001;SDS011;22913;51.910;8.374;2022-12-26T09:10:38;6.50;;;5.90;;
37001;SDS011;22913;51.910;8.374;2022-12-26T09:13:24;6.03;;;5.53;;
37001;SDS011;22913;51.910;8.374;2022-12-26T09:16:10;6.50;;;5.90;;
37001;SDS011;22913;51.910;8.374;2022-12-26T09:18:58;6.00;;;5.50;;
37001;SDS011;22913;51.910;8.374;2022-12-26T09:21:44;5.97;;;5.47;;
37001;SDS011;22913;51.910;8.374;2022-12-26T09:24:32;5.63;;;5.07;;
37001;SDS011;22913;51.910;8.374;2022-12-26T09:27:18;5.30;;;4.90;;
37001;SDS011;22913;51.910;8.374;2022-12-26T09:30:04;5.03;;;4.60;;
37001;SDS011;22913;51.910;8.374;2022-12-26T09:32:50;4.60;;;4.17;;
37001;SDS011;22913;51.910;8.374;2022-12-26T09:35:38;4.43;;;3.97;;
37001;SDS011;22913;51.910;8.374;2022-12-26T09:38:24;4.80;;;4.40;;
37001;SDS011;22913;51.910;8.374;2022-12-26T09:41:22;4.70;;;4.33;;
37001;SDS011;22913;51.910;8.374;2022-12-26T09:44:21;4.57;;;3.97;;
37001;SDS011;22913;51.910;8.374;2022-12-26T09:47:15;4.53;;;4.10;;
37001;SDS011;22913;51.910;8.374;2022-12-26T09:50:11;4.13;;;3.83;;
37001;SDS011;22913;51.910;8.374;2022-12-26T09:53:01;4.23;;;3.90;;
37001;SDS011;22913;51.910;8.374;2022-12-26T09:55:50;4.77;;;3.93;;
37001;SDS011;22913;51.910;8.374;2022-12-26T09:58:42;4.20;;;3.90;;
37001;SDS011;22913;51.910;8.374;2022-12-26T10:01:31;3.90;;;3.60;;
37001;SDS011;22913;51.910;8.374;2022-12-26T10:04:20;4.17;;;3.77;;
37001;SDS011;22913;51.910;8.374;2022-12-26T10:07:09;5.50;;;3.40;;
37001;SDS011;22913;51.910;8.374;2022-12-26T10:10:03;4.70;;;3.20;;
37001;SDS011;22913;51.910;8.374;2022-12-26T10:12:55;3.50;;;3.20;;
37001;SDS011;22913;51.910;8.374;2022-12-26T10:15:50;4.73;;;3.57;;
37001;SDS011;22913;51.910;8.374;2022-12-26T10:18:44;3.60;;;3.30;;
37001;SDS011;22913;51.910;8.374;2022-12-26T10:21:39;3.40;;;3.10;;
37001;SDS011;22913;51.910;8.374;2022-12-26T10:24:32;4.43;;;3.23;;
37001;SDS011;22913;51.910;8.374;2022-12-26T10:27:21;3.50;;;2.80;;
37001;SDS011;22913;51.910;8.374;2022-12-26T10:30:13;3.80;;;3.00;;
37001;SDS011;22913;51.910;8.374;2022-12-26T10:33:05;2.90;;;2.60;;
37001;SDS011;22913;51.910;8.374;2022-12-26T10:35:57;4.10;;;2.50;;
37001;SDS011;22913;51.910;8.374;2022-12-26T10:38:44;3.03;;;2.40;;
37001;SDS011;22913;51.910;8.374;2022-12-26T10:41:36;3.20;;;2.20;;
37001;SDS011;22913;51.910;8.374;2022-12-26T10:44:25;3.30;;;2.40;;
37001;SDS011;22913;51.910;8.374;2022-12-26T10:47:18;2.97;;;2.47;;
37001;SDS011;22913;51.910;8.374;2022-12-26T10:50:10;2.83;;;2.60;;
37001;SDS011;22913;51.910;8.374;2022-12-26T10:53:02;3.60;;;2.90;;
37001;SDS011;22913;51.910;8.374;2022-12-26T10:55:50;5.53;;;2.60;;
37001;SDS011;22913;51.910;8.374;2022-12-26T10:58:36;3.33;;;3.03;;
37001;SDS011;22913;51.910;8.374;2022-12-26T11:01:33;2.63;;;2.40;;
37001;SDS011;22913;51.910;8.374;2022-12-26T11:04:21;2.63;;;2.37;;
37001;SDS011;22913;51.910;8.374;2022-12-26T11:07:10;4.13;;;2.50;;
37001;SDS011;22913;51.910;8.374;2022-12-26T11:09:56;3.10;;;2.30;;
37001;SDS011;22913;51.910;8.374;2022-12-26T11:12:43;5.13;;;2.40;;
37001;SDS011;22913;51.910;8.374;2022-12-26T11:15:33;2.43;;;1.93;;
37001;SDS011;22913;51.910;8.374;2022-12-26T11:18:26;2.90;;;2.50;;
37001;SDS011;22913;51.910;8.374;2022-12-26T11:21:19;2.17;;;1.90;;
37001;SDS011;22913;51.910;8.374;2022-12-26T11:24:16;4.87;;;2.17;;
37001;SDS011;22913;51.910;8.374;2022-12-26T11:27:15;2.40;;;1.87;;
37001;SDS011;22913;51.910;8.374;2022-12-26T11:30:14;2.40;;;1.77;;
37001;SDS011;22913;51.910;8.374;2022-12-26T11:33:14;2.27;;;2.00;;
37001;SDS011;22913;51.910;8.374;2022-12-26T11:36:08;2.23;;;1.70;;
37001;SDS011;22913;51.910;8.374;2022-12-26T11:39:00;3.43;;;1.80;;
37001;SDS011;22913;51.910;8.374;2022-12-26T11:41:50;3.40;;;1.80;;
37001;SDS011;22913;51.910;8.374;2022-12-26T11:44:38;2.13;;;1.87;;
37001;SDS011;22913;51.910;8.374;2022-12-26T11:47:27;3.03;;;1.70;;
37001;SDS011;22913;51.910;8.374;2022-12-26T11:50:14;3.23;;;1.60;;
37001;SDS011;22913;51.910;8.374;2022-12-26T11:53:05;6.40;;;1.80;;
37001;SDS011;22913;51.910;8.374;2022-12-26T11:55:57;3.07;;;2.00;;
37001;SDS011;22913;51.910;8.374;2022-12-26T11:58:46;2.60;;;2.10;;
37001;SDS011;22913;51.910;8.374;2022-12-26T12:01:31;3.33;;;2.30;;
37001;SDS011;22913;51.910;8.374;2022-12-26T12:04:17;3.33;;;2.20;;
37001;SDS011;22913;51.910;8.374;2022-12-26T12:07:04;6.27;;;2.50;;
37001;SDS011;22913;51.910;8.374;2022-12-26T12:10:00;6.37;;;2.67;;
37001;SDS011;22913;51.910;8.374;2022-12-26T12:12:55;3.50;;;2.57;;
37001;SDS011;22913;51.910;8.374;2022-12-26T12:15:48;4.30;;;2.00;;
37001;SDS011;22913;51.910;8.374;2022-12-26T12:18:42;4.27;;;2.57;;
37001;SDS011;22913;51.910;8.374;2022-12-26T12:21:44;5.90;;;2.80;;
37001;SDS011;22913;51.910;8.374;2022-12-26T12:24:47;4.63;;;2.47;;
37001;SDS011;22913;51.910;8.374;2022-12-26T12:27:45;3.00;;;2.33;;
37001;SDS011;22913;51.910;8.374;2022-12-26T12:30:37;3.80;;;2.27;;
37001;SDS011;22913;51.910;8.374;2022-12-26T12:33:34;4.47;;;2.20;;
37001;SDS011;22913;51.910;8.374;2022-12-26T12:36:28;3.20;;;2.10;;
37001;SDS011;22913;51.910;8.374;2022-12-26T12:39:18;2.67;;;2.07;;
37001;SDS011;22913;51.910;8.374;2022-12-26T12:42:21;3.07;;;2.03;;
37001;SDS011;22913;51.910;8.374;2022-12-26T12:45:19;2.77;;;2.30;;
37001;SDS011;22913;51.910;8.374;2022-12-26T12:48:14;2.03;;;1.80;;
37001;SDS011;22913;51.910;8.374;2022-12-26T12:51:12;2.43;;;2.23;;
37001;SDS011;22913;51.910;8.374;2022-12-26T12:57:31;3.43;;;2.10;;
37001;SDS011;22913;51.910;8.374;2022-12-26T13:00:25;2.70;;;2.47;;
37001;SDS011;22913;51.910;8.374;2022-12-26T13:03:18;4.40;;;2.30;;
37001;SDS011;22913;51.910;8.374;2022-12-26T13:06:12;2.70;;;2.20;;
37001;SDS011;22913;51.910;8.374;2022-12-26T13:09:03;4.03;;;2.20;;
37001;SDS011;22913;51.910;8.374;2022-12-26T13:11:56;2.20;;;2.00;;
37001;SDS011;22913;51.910;8.374;2022-12-26T13:14:45;2.20;;;1.90;;
37001;SDS011;22913;51.910;8.374;2022-12-26T13:17:36;2.53;;;2.10;;
37001;SDS011;22913;51.910;8.374;2022-12-26T13:20:25;2.97;;;2.10;;
37001;SDS011;22913;51.910;8.374;2022-12-26T13:23:20;2.03;;;1.80;;
37001;SDS011;22913;51.910;8.374;2022-12-26T13:26:28;2.57;;;2.23;;
37001;SDS011;22913;51.910;8.374;2022-12-26T13:29:16;2.83;;;1.30;;
37001;SDS011;22913;51.910;8.374;2022-12-26T13:32:15;2.93;;;1.87;;
37001;SDS011;22913;51.910;8.374;2022-12-26T13:35:03;2.33;;;1.70;;
37001;SDS011;22913;51.910;8.374;2022-12-26T13:37:54;2.00;;;1.90;;
37001;SDS011;22913;51.910;8.374;2022-12-26T13:40:45;4.03;;;1.90;;
37001;SDS011;22913;51.910;8.374;2022-12-26T13:43:31;2.60;;;2.40;;
37001;SDS011;22913;51.910;8.374;2022-12-26T13:46:35;1.70;;;1.60;;
37001;SDS011;22913;51.910;8.374;2022-12-26T13:49:38;2.67;;;2.47;;
37001;SDS011;22913;51.910;8.374;2022-12-26T13:52:32;2.80;;;2.30;;
37001;SDS011;22913;51.910;8.374;2022-12-26T13:55:29;3.87;;;2.40;;
37001;SDS011;22913;51.910;8.374;2022-12-26T13:58:31;5.73;;;2.13;;
37001;SDS011;22913;51.910;8.374;2022-12-26T14:01:32;7.30;;;2.10;;
37001;SDS011;22913;51.910;8.374;2022-12-26T14:04:30;7.50;;;2.67;;
37001;SDS011;22913;51.910;8.374;2022-12-26T14:07:25;5.73;;;2.50;;
37001;SDS011;22913;51.910;8.374;2022-12-26T14:10:17;4.63;;;2.40;;
37001;SDS011;22913;51.910;8.374;2022-12-26T14:13:12;4.37;;;2.90;;
37001;SDS011;22913;51.910;8.374;2022-12-26T14:16:17;8.40;;;2.70;;
37001;SDS011;22913;51.910;8.374;2022-12-26T14:19:10;8.03;;;2.50;;
37001;SDS011;22913;51.910;8.374;2022-12-26T14:22:05;6.77;;;2.50;;
37001;SDS011;22913;51.910;8.374;2022-12-26T14:25:00;7.93;;;2.40;;
37001;SDS011;22913;51.910;8.374;2022-12-26T14:27:52;5.50;;;2.10;;
37001;SDS011;22913;51.910;8.374;2022-12-26T14:30:48;3.73;;;1.97;;
37001;SDS011;22913;51.910;8.374;2022-12-26T14:33:45;5.67;;;2.40;;
37001;SDS011;22913;51.910;8.374;2022-12-26T14:36:40;3.53;;;1.97;;
37001;SDS011;22913;51.910;8.374;2022-12-26T14:39:35;8.93;;;2.20;;
37001;SDS011;22913;51.910;8.374;2022-12-26T14:42:27;7.67;;;2.07;;
37001;SDS011;22913;51.910;8.374;2022-12-26T14:45:39;4.60;;;1.67;;
37001;SDS011;22913;51.910;8.374;2022-12-26T14:48:38;8.40;;;2.57;;
37001;SDS011;22913;51.910;8.374;2022-12-26T14:51:37;5.57;;;2.77;;
37001;SDS011;22913;51.910;8.374;2022-12-26T14:54:34;3.10;;;1.63;;
37001;SDS011;22913;51.910;8.374;2022-12-26T15:00:31;3.10;;;1.67;;
37001;SDS011;22913;51.910;8.374;2022-12-26T15:03:39;6.23;;;1.90;;
37001;SDS011;22913;51.910;8.374;2022-12-26T15:16:32;5.53;;;2.43;;
37001;SDS011;22913;51.910;8.374;2022-12-26T15:23:11;8.30;;;1.87;;
37001;SDS011;22913;51.910;8.374;2022-12-26T15:26:35;5.87;;;2.10;;
37001;SDS011;22913;51.910;8.374;2022-12-26T15:29:48;5.53;;;1.50;;
37001;SDS011;22913;51.910;8.374;2022-12-26T15:32:49;3.77;;;1.60;;
37001;SDS011;22913;51.910;8.374;2022-12-26T15:35:43;4.57;;;1.80;;
37001;SDS011;22913;51.910;8.374;2022-12-26T15:38:37;4.33;;;2.10;;
37001;SDS011;22913;51.910;8.374;2022-12-26T15:41:32;5.87;;;2.00;;
37001;SDS011;22913;51.910;8.374;2022-12-26T15:44:25;6.93;;;2.30;;
37001;SDS011;22913;51.910;8.374;2022-12-26T15:47:19;4.93;;;2.27;;
37001;SDS011;22913;51.910;8.374;2022-12-26T15:50:19;4.90;;;2.00;;
37001;SDS011;22913;51.910;8.374;2022-12-26T15:53:12;6.73;;;2.20;;
37001;SDS011;22913;51.910;8.374;2022-12-26T15:56:13;4.57;;;1.60;;
37001;SDS011;22913;51.910;8.374;2022-12-26T16:02:43;3.60;;;1.80;;
37001;SDS011;22913;51.910;8.374;2022-12-26T16:05:43;3.33;;;2.10;;
37001;SDS011;22913;51.910;8.374;2022-12-26T16:08:47;6.87;;;2.23;;
37001;SDS011;22913;51.910;8.374;2022-12-26T16:11:47;5.47;;;2.20;;
37001;SDS011;22913;51.910;8.374;2022-12-26T16:14:37;3.97;;;2.03;;
37001;SDS011;22913;51.910;8.374;2022-12-26T16:17:23;6.30;;;2.70;;
37001;SDS011;22913;51.910;8.374;2022-12-26T16:20:20;5.67;;;2.17;;
37001;SDS011;22913;51.910;8.374;2022-12-26T16:23:35;5.33;;;2.37;;
37001;SDS011;22913;51.910;8.374;2022-12-26T16:26:24;6.33;;;2.23;;
37001;SDS011;22913;51.910;8.374;2022-12-26T16:29:15;4.57;;;2.53;;
37001;SDS011;22913;51.910;8.374;2022-12-26T16:32:03;6.17;;;2.60;;
37001;SDS011;22913;51.910;8.374;2022-12-26T16:34:49;5.27;;;2.70;;
37001;SDS011;22913;51.910;8.374;2022-12-26T16:37:35;6.90;;;2.50;;
37001;SDS011;22913;51.910;8.374;2022-12-26T16:40:23;4.67;;;2.00;;
37001;SDS011;22913;51.910;8.374;2022-12-26T16:43:22;5.37;;;2.20;;
37001;SDS011;22913;51.910;8.374;2022-12-26T16:46:11;3.30;;;1.87;;
37001;SDS011;22913;51.910;8.374;2022-12-26T16:48:58;6.70;;;2.07;;
37001;SDS011;22913;51.910;8.374;2022-12-26T16:51:45;5.80;;;2.20;;
37001;SDS011;22913;51.910;8.374;2022-12-26T16:54:34;3.53;;;2.00;;
37001;SDS011;22913;51.910;8.374;2022-12-26T16:57:21;4.80;;;2.17;;
37001;SDS011;22913;51.910;8.374;2022-12-26T17:03:02;7.00;;;2.53;;
37001;SDS011;22913;51.910;8.374;2022-12-26T17:05:58;8.50;;;3.67;;
37001;SDS011;22913;51.910;8.374;2022-12-26T17:08:45;5.30;;;2.63;;
37001;SDS011;22913;51.910;8.374;2022-12-26T17:11:34;3.57;;;2.83;;
37001;SDS011;22913;51.910;8.374;2022-12-26T17:14:23;9.93;;;3.47;;
37001;SDS011;22913;51.910;8.374;2022-12-26T17:17:24;6.47;;;3.30;;
37001;SDS011;22913;51.910;8.374;2022-12-26T17:23:29;7.40;;;2.00;;
37001;SDS011;22913;51.910;8.374;2022-12-26T17:26:22;7.27;;;2.57;;
37001;SDS011;22913;51.910;8.374;2022-12-26T17:32:29;9.00;;;2.70;;
37001;SDS011;22913;51.910;8.374;2022-12-26T17:35:18;7.87;;;2.70;;
37001;SDS011;22913;51.910;8.374;2022-12-26T17:38:12;6.10;;;2.43;;
37001;SDS011;22913;51.910;8.374;2022-12-26T17:41:02;12.93;;;2.90;;